Time;durP1;ratioP1;P1;durP2;ratioP2;P2;SDS_P1;SDS_P2;PMS_P1;PMS_P2;Temp;Humidity;BMP_temperature;BMP_pressure;BME280_temperature;BME280_humidity;BME280_pressure;Samples;Min_cycle;Max_cycle;Signal;HPM_P1;HPM_P2
2021/10/03 00:02:11;;;;;;;3.13;2.73;;;17.00;99.90;;;;;;5073444;28;20532;-70
2021/10/03 00:04:39;;;;;;;3.57;3.20;;;17.10;99.90;;;;;;5085773;28;20826;-70
2021/10/03 00:07:05;;;;;;;3.93;3.10;;;17.10;99.90;;;;;;5093322;28;20491;-70
2021/10/03 00:09:31;;;;;;;5.70;3.00;;;17.10;99.90;;;;;;5093428;28;20575;-70
2021/10/03 00:11:57;;;;;;;3.33;3.03;;;17.10;99.90;;;;;;5088689;28;20183;-70
2021/10/03 00:14:23;;;;;;;3.33;2.73;;;17.10;99.90;;;;;;5073148;28;20569;-70
2021/10/03 00:16:52;;;;;;;4.03;2.73;;;17.10;99.90;;;;;;5073199;28;20418;-70
2021/10/03 00:19:19;;;;;;;3.50;3.00;;;17.10;99.90;;;;;;5073182;28;20402;-70
2021/10/03 00:21:44;;;;;;;3.83;3.30;;;17.00;99.90;;;;;;5073143;28;20978;-70
2021/10/03 00:24:10;;;;;;;3.40;3.10;;;17.00;99.90;;;;;;5072867;28;20398;-70
2021/10/03 00:26:36;;;;;;;5.60;3.37;;;17.00;99.90;;;;;;5073100;28;20664;-70
2021/10/03 00:29:03;;;;;;;4.40;2.57;;;16.90;99.90;;;;;;5073532;28;20421;-70
2021/10/03 00:31:28;;;;;;;3.37;3.07;;;16.80;99.90;;;;;;5073404;28;20461;-70
2021/10/03 00:33:54;;;;;;;3.43;3.13;;;16.80;99.90;;;;;;5079624;28;20428;-70
2021/10/03 00:36:19;;;;;;;6.77;3.90;;;16.70;99.90;;;;;;5092962;28;20162;-70
2021/10/03 00:38:45;;;;;;;4.37;3.40;;;16.70;99.90;;;;;;5092898;28;20163;-70
2021/10/03 00:41:11;;;;;;;7.27;4.10;;;16.70;99.90;;;;;;5092881;28;20293;-70
2021/10/03 00:43:37;;;;;;;4.70;3.77;;;16.60;99.90;;;;;;5092919;28;20184;-70
2021/10/03 00:46:03;;;;;;;4.07;3.67;;;16.50;99.90;;;;;;5087209;28;20421;-70
2021/10/03 00:48:29;;;;;;;4.00;3.53;;;16.40;99.90;;;;;;5072661;28;20382;-70
2021/10/03 00:50:54;;;;;;;4.90;3.40;;;16.40;99.90;;;;;;5072633;28;20156;-70
2021/10/03 00:53:20;;;;;;;6.73;3.77;;;16.30;99.90;;;;;;5072686;28;20160;-70
2021/10/03 00:55:46;;;;;;;4.83;3.47;;;16.30;99.90;;;;;;5072695;28;20244;-70
2021/10/03 00:58:12;;;;;;;3.43;3.03;;;16.20;99.90;;;;;;5073022;28;20160;-70
2021/10/03 01:00:39;;;;;;;4.67;4.13;;;16.20;99.90;;;;;;5072644;28;20190;-70
2021/10/03 01:03:06;;;;;;;4.20;3.80;;;16.10;99.90;;;;;;5074881;28;20270;-70
2021/10/03 01:05:32;;;;;;;8.03;4.37;;;16.10;99.90;;;;;;5092989;28;20856;-70
2021/10/03 01:07:59;;;;;;;4.53;3.40;;;16.00;99.90;;;;;;5092652;28;20927;-70
2021/10/03 01:10:26;;;;;;;4.13;3.67;;;16.00;99.90;;;;;;5092600;28;20393;-70
2021/10/03 01:12:57;;;;;;;4.70;4.10;;;16.00;99.90;;;;;;5092229;28;20401;-70
2021/10/03 01:15:25;;;;;;;4.27;3.50;;;16.00;99.90;;;;;;5093061;28;20441;-70
2021/10/03 01:17:51;;;;;;;4.20;3.73;;;16.00;99.90;;;;;;5092761;28;20866;-70
2021/10/03 01:20:17;;;;;;;5.30;3.40;;;16.00;99.90;;;;;;5085000;28;20414;-70
2021/10/03 01:22:42;;;;;;;6.07;3.40;;;16.00;99.90;;;;;;5072235;28;20180;-70
2021/10/03 01:25:09;;;;;;;3.37;3.07;;;16.00;99.90;;;;;;5089834;28;20760;-70
2021/10/03 01:27:36;;;;;;;4.13;3.60;;;16.00;99.90;;;;;;5092961;28;20178;-70
2021/10/03 01:30:05;;;;;;;3.70;3.30;;;16.00;99.90;;;;;;5092711;28;20389;-70
2021/10/03 01:32:30;;;;;;;5.67;3.70;;;16.00;99.90;;;;;;5092456;28;20396;-70
2021/10/03 01:34:56;;;;;;;3.20;2.90;;;16.00;99.90;;;;;;5092203;28;20791;-70
2021/10/03 01:37:23;;;;;;;3.17;2.80;;;16.00;99.90;;;;;;5083955;28;20539;-70
2021/10/03 01:39:50;;;;;;;4.47;2.70;;;16.10;99.90;;;;;;5072137;28;20207;-70
2021/10/03 01:42:16;;;;;;;3.67;3.37;;;16.20;99.90;;;;;;5072178;28;20443;-70
2021/10/03 01:44:41;;;;;;;3.67;2.80;;;16.20;99.90;;;;;;5072337;28;20743;-70
2021/10/03 01:47:07;;;;;;;3.00;2.60;;;16.30;99.90;;;;;;5071958;28;20205;-70
2021/10/03 01:49:32;;;;;;;2.93;2.73;;;16.20;99.90;;;;;;5072025;28;20160;-70
2021/10/03 01:51:58;;;;;;;3.90;2.50;;;16.30;99.90;;;;;;5072103;28;20163;-70
2021/10/03 01:54:24;;;;;;;2.53;2.33;;;16.30;99.90;;;;;;5072567;28;20194;-70
2021/10/03 01:56:50;;;;;;;5.50;3.00;;;16.30;99.90;;;;;;5072240;28;20152;-70
2021/10/03 01:59:17;;;;;;;2.50;2.30;;;16.30;99.90;;;;;;5071864;28;20194;-70
2021/10/03 02:01:44;;;;;;;4.53;2.43;;;16.40;99.90;;;;;;5071684;28;20514;-70
2021/10/03 02:04:20;;;;;;;3.43;2.30;;;16.40;99.90;;;;;;5084953;28;20447;-70
2021/10/03 02:06:47;;;;;;;3.20;2.73;;;16.40;99.90;;;;;;5092155;28;20446;-70
2021/10/03 02:09:18;;;;;;;3.97;2.37;;;16.40;99.90;;;;;;5093995;28;20403;-70
2021/10/03 02:11:47;;;;;;;3.40;2.47;;;16.40;99.90;;;;;;5085005;28;20783;-70
2021/10/03 02:14:14;;;;;;;2.43;2.23;;;16.40;99.90;;;;;;5075472;28;20446;-70
2021/10/03 02:16:40;;;;;;;3.47;3.00;;;16.40;99.90;;;;;;5075290;28;20879;-70
2021/10/03 02:19:06;;;;;;;3.30;2.37;;;16.40;99.90;;;;;;5083144;28;20503;-70
2021/10/03 02:21:32;;;;;;;2.60;2.40;;;16.40;99.90;;;;;;5095493;28;20186;-70
2021/10/03 02:23:57;;;;;;;3.83;2.63;;;16.40;99.90;;;;;;5095456;28;20385;-70
2021/10/03 02:26:23;;;;;;;3.03;2.33;;;16.40;99.90;;;;;;5096035;28;20719;-70
2021/10/03 02:28:48;;;;;;;2.50;2.27;;;16.40;99.90;;;;;;5083170;28;20641;-70
2021/10/03 02:31:14;;;;;;;3.10;2.80;;;16.40;99.90;;;;;;5075113;28;20170;-70
2021/10/03 02:33:45;;;;;;;3.23;2.17;;;16.40;99.90;;;;;;5075053;28;20213;-70
2021/10/03 02:36:11;;;;;;;3.33;2.30;;;16.40;99.90;;;;;;5075114;28;20394;-70
2021/10/03 02:38:37;;;;;;;2.60;2.10;;;16.40;99.90;;;;;;5079194;28;20515;-70
2021/10/03 02:41:06;;;;;;;2.83;2.60;;;16.40;99.90;;;;;;5095401;28;20463;-70
2021/10/03 02:43:33;;;;;;;2.97;2.53;;;16.40;99.90;;;;;;5095056;28;20446;-70
2021/10/03 02:46:00;;;;;;;3.87;2.47;;;16.40;99.90;;;;;;5081421;28;20425;-70
2021/10/03 02:48:28;;;;;;;3.00;2.80;;;16.40;99.90;;;;;;5074907;28;20432;-70
2021/10/03 02:50:54;;;;;;;3.43;3.10;;;16.40;99.90;;;;;;5074926;28;20643;-70
2021/10/03 02:53:22;;;;;;;3.70;2.43;;;16.40;99.90;;;;;;5075333;28;20401;-73
2021/10/03 02:55:48;;;;;;;3.33;2.77;;;16.40;99.90;;;;;;5075123;28;20450;-73
2021/10/03 02:58:14;;;;;;;3.27;2.97;;;16.40;99.90;;;;;;5074663;28;20845;-73
2021/10/03 03:00:42;;;;;;;5.40;3.30;;;16.40;99.90;;;;;;5075070;28;20429;-73
2021/10/03 03:03:07;;;;;;;4.50;3.10;;;16.40;99.90;;;;;;5075631;28;20589;-72
2021/10/03 03:05:33;;;;;;;2.37;2.13;;;16.40;99.90;;;;;;5074661;28;20402;-72
2021/10/03 03:08:00;;;;;;;3.47;3.17;;;16.30;99.90;;;;;;5074402;28;20163;-72
2021/10/03 03:10:25;;;;;;;2.80;2.47;;;16.30;99.90;;;;;;5093822;28;20456;-72
2021/10/03 03:12:51;;;;;;;3.10;2.80;;;16.40;99.90;;;;;;5094787;28;20858;-72
2021/10/03 03:15:17;;;;;;;4.00;3.50;;;16.40;99.90;;;;;;5094754;28;20536;-73
2021/10/03 03:17:42;;;;;;;4.77;3.40;;;16.40;99.90;;;;;;5094531;28;20178;-72
2021/10/03 03:20:09;;;;;;;5.07;3.43;;;16.40;99.90;;;;;;5079339;28;20700;-72
2021/10/03 03:22:35;;;;;;;6.00;3.20;;;16.50;99.90;;;;;;5074212;28;20572;-72
2021/10/03 03:25:03;;;;;;;3.60;3.10;;;16.50;99.90;;;;;;5074215;28;20401;-72
2021/10/03 03:27:28;;;;;;;5.30;2.97;;;16.60;99.90;;;;;;5074336;28;20397;-72
2021/10/03 03:29:54;;;;;;;3.30;3.00;;;16.60;99.90;;;;;;5074280;28;20394;-72
2021/10/03 03:32:19;;;;;;;4.73;3.77;;;16.60;99.90;;;;;;5074031;28;20164;-73
2021/10/03 03:34:45;;;;;;;8.73;3.73;;;16.60;99.90;;;;;;5073918;28;20190;-72
2021/10/03 03:37:10;;;;;;;4.27;3.60;;;16.60;99.90;;;;;;5074416;28;20183;-72
2021/10/03 03:39:36;;;;;;;5.23;3.20;;;16.60;99.90;;;;;;5088744;28;20190;-72
2021/10/03 03:42:02;;;;;;;4.77;3.27;;;16.50;99.90;;;;;;5094241;28;20218;-72
2021/10/03 03:44:29;;;;;;;3.77;3.47;;;16.40;99.90;;;;;;5094195;28;20213;-72
2021/10/03 03:46:54;;;;;;;4.80;3.97;;;16.40;99.90;;;;;;5093725;28;20416;-72
2021/10/03 03:49:20;;;;;;;5.20;3.73;;;16.40;99.90;;;;;;5093887;28;20923;-73
2021/10/03 03:51:46;;;;;;;4.03;3.60;;;16.40;99.90;;;;;;5093825;28;20253;-73
2021/10/03 03:54:11;;;;;;;4.90;3.70;;;16.40;99.90;;;;;;5078607;28;20186;-72
2021/10/03 03:56:37;;;;;;;7.07;4.80;;;16.40;99.90;;;;;;5073730;28;20166;-72
2021/10/03 03:59:02;;;;;;;4.40;4.00;;;16.40;99.90;;;;;;5073622;28;20199;-73
2021/10/03 04:01:28;;;;;;;5.43;4.97;;;16.40;99.90;;;;;;5073357;28;20212;-73
2021/10/03 04:03:54;;;;;;;5.00;3.57;;;16.40;99.90;;;;;;5073257;28;20195;-73
2021/10/03 04:06:20;;;;;;;5.80;5.20;;;16.30;99.90;;;;;;5073354;28;20151;-72
2021/10/03 04:08:45;;;;;;;4.83;4.40;;;16.30;99.90;;;;;;5080598;28;20218;-72
2021/10/03 04:11:13;;;;;;;5.07;4.67;;;16.30;99.90;;;;;;5078186;28;20926;-72
2021/10/03 04:13:39;;;;;;;5.47;4.90;;;16.30;99.90;;;;;;5073147;28;20168;-72
2021/10/03 04:16:05;;;;;;;4.80;4.27;;;16.30;99.90;;;;;;5073169;28;20390;-72
2021/10/03 04:18:31;;;;;;;6.40;4.67;;;16.30;99.90;;;;;;5092383;28;20897;-72
2021/10/03 04:20:56;;;;;;;5.50;5.00;;;16.30;99.90;;;;;;5093094;28;20186;-72
2021/10/03 04:23:22;;;;;;;4.73;4.20;;;16.30;99.90;;;;;;5093250;28;20159;-73
2021/10/03 04:25:47;;;;;;;5.97;5.10;;;16.40;99.90;;;;;;5093245;28;20189;-73
2021/10/03 04:28:13;;;;;;;5.60;4.97;;;16.40;99.90;;;;;;5077262;28;20171;-73
2021/10/03 04:30:38;;;;;;;4.77;4.10;;;16.40;99.90;;;;;;5072659;28;20252;-73
2021/10/03 04:33:04;;;;;;;6.60;4.80;;;16.40;99.90;;;;;;5072941;28;20263;-72
2021/10/03 04:35:30;;;;;;;5.17;4.67;;;16.40;99.90;;;;;;5072812;28;20631;-72
2021/10/03 04:37:55;;;;;;;5.63;5.00;;;16.40;99.90;;;;;;5073155;28;20179;-72
2021/10/03 04:40:21;;;;;;;6.53;4.67;;;16.40;99.90;;;;;;5092995;28;20249;-72
2021/10/03 04:42:47;;;;;;;5.60;5.00;;;16.30;99.90;;;;;;5092937;28;20190;-72
2021/10/03 04:45:15;;;;;;;10.20;5.50;;;16.30;99.90;;;;;;5077369;28;20171;-72
2021/10/03 04:47:42;;;;;;;10.03;5.37;;;16.30;99.90;;;;;;5072668;28;20425;-72
2021/10/03 04:50:08;;;;;;;6.67;5.63;;;16.30;99.90;;;;;;5072654;28;20442;-72
2021/10/03 04:52:33;;;;;;;6.30;4.90;;;16.30;99.90;;;;;;5073008;28;20401;-72
2021/10/03 04:54:59;;;;;;;6.40;5.80;;;16.30;99.90;;;;;;5072768;28;20395;-72
2021/10/03 04:57:24;;;;;;;7.20;5.90;;;16.30;99.90;;;;;;5072826;28;20313;-72
2021/10/03 04:59:50;;;;;;;8.03;5.90;;;16.30;99.90;;;;;;5072434;28;20191;-72
2021/10/03 05:02:15;;;;;;;7.30;5.03;;;16.30;99.90;;;;;;5072959;28;20214;-72
2021/10/03 05:04:41;;;;;;;5.97;5.37;;;16.40;99.90;;;;;;5072614;28;20156;-72
2021/10/03 05:07:07;;;;;;;5.30;4.80;;;16.40;99.90;;;;;;5073271;28;20613;-72
2021/10/03 05:09:33;;;;;;;7.17;5.53;;;16.40;99.90;;;;;;5086422;28;20755;-72
2021/10/03 05:11:59;;;;;;;5.40;4.90;;;16.40;99.90;;;;;;5092533;28;20616;-72
2021/10/03 05:14:24;;;;;;;5.00;4.50;;;16.50;99.90;;;;;;5092632;28;20404;-72
2021/10/03 05:16:50;;;;;;;6.10;5.50;;;16.50;99.90;;;;;;5092936;28;20171;-72
2021/10/03 05:19:15;;;;;;;7.60;5.33;;;16.60;99.90;;;;;;5076291;28;20182;-72
2021/10/03 05:21:41;;;;;;;7.53;5.57;;;16.50;99.90;;;;;;5072966;28;20192;-72
2021/10/03 05:24:07;;;;;;;7.73;5.87;;;16.50;99.90;;;;;;5072378;28;20156;-72
2021/10/03 05:26:33;;;;;;;8.03;6.03;;;16.40;99.90;;;;;;5072186;28;20155;-72
2021/10/03 05:28:58;;;;;;;7.20;5.40;;;16.30;99.90;;;;;;5072387;28;20158;-73
2021/10/03 05:31:24;;;;;;;7.27;6.40;;;16.20;99.90;;;;;;5072400;28;20160;-73
2021/10/03 05:33:50;;;;;;;7.60;6.30;;;16.20;99.90;;;;;;5072533;28;20167;-73
2021/10/03 05:36:16;;;;;;;7.80;7.00;;;16.20;99.90;;;;;;5073320;28;20213;-73
2021/10/03 05:38:42;;;;;;;7.70;6.40;;;16.10;99.90;;;;;;5078166;28;20509;-73
2021/10/03 05:41:09;;;;;;;7.93;7.13;;;16.10;99.90;;;;;;5092366;28;20444;-73
2021/10/03 05:43:37;;;;;;;6.60;5.97;;;16.00;99.90;;;;;;5093703;28;20487;-73
2021/10/03 05:46:04;;;;;;;8.70;7.40;;;16.00;99.90;;;;;;5096137;28;20909;-73
2021/10/03 05:48:30;;;;;;;7.30;6.60;;;15.90;99.90;;;;;;5096276;28;20454;-73
2021/10/03 05:50:55;;;;;;;7.43;6.10;;;15.90;99.90;;;;;;5096707;28;20501;-73
2021/10/03 05:53:21;;;;;;;8.30;7.50;;;15.90;99.90;;;;;;5079878;28;20193;-73
2021/10/03 05:55:46;;;;;;;11.50;7.93;;;15.90;99.90;;;;;;5075907;28;20241;-73
2021/10/03 05:58:12;;;;;;;9.60;7.83;;;15.90;99.90;;;;;;5075752;28;20163;-73
2021/10/03 06:00:39;;;;;;;8.90;7.43;;;15.90;99.90;;;;;;5075493;28;20291;-73
2021/10/03 06:03:05;;;;;;;10.03;6.83;;;15.90;99.90;;;;;;5075730;28;20166;-73
2021/10/03 06:05:31;;;;;;;7.57;6.50;;;15.90;99.90;;;;;;5076161;28;20405;-73
2021/10/03 06:07:56;;;;;;;7.83;7.13;;;15.90;99.90;;;;;;5075681;28;20194;-73
2021/10/03 06:10:22;;;;;;;12.23;7.10;;;15.90;99.90;;;;;;5078126;28;20186;-73
2021/10/03 06:12:48;;;;;;;8.20;7.40;;;15.90;99.90;;;;;;5075497;28;20166;-73
2021/10/03 06:15:13;;;;;;;12.47;6.90;;;15.90;99.90;;;;;;5075703;28;20159;-72
2021/10/03 06:17:39;;;;;;;13.20;7.07;;;16.00;99.90;;;;;;5075749;28;20285;-72
2021/10/03 06:20:05;;;;;;;9.87;7.30;;;16.00;99.90;;;;;;5075992;28;20170;-73
2021/10/03 06:22:31;;;;;;;7.93;6.37;;;16.00;99.90;;;;;;5075391;28;20183;-73
2021/10/03 06:24:57;;;;;;;7.80;7.00;;;16.00;99.90;;;;;;5075345;28;20405;-72
2021/10/03 06:27:22;;;;;;;9.07;7.40;;;16.00;99.90;;;;;;5075870;28;20417;-72
2021/10/03 06:29:48;;;;;;;8.40;6.50;;;16.10;99.90;;;;;;5075272;28;20152;-72
2021/10/03 06:32:14;;;;;;;7.83;6.80;;;16.10;99.90;;;;;;5075295;28;20162;-73
2021/10/03 06:34:39;;;;;;;9.93;7.00;;;16.20;99.90;;;;;;5075608;28;20168;-73
2021/10/03 06:37:05;;;;;;;7.30;6.33;;;16.20;99.90;;;;;;5075166;28;20156;-73
2021/10/03 06:39:30;;;;;;;7.27;6.40;;;16.20;99.90;;;;;;5090052;28;20182;-73
2021/10/03 06:41:56;;;;;;;9.63;7.67;;;16.20;99.90;;;;;;5095266;28;20185;-73
2021/10/03 06:44:21;;;;;;;8.83;6.73;;;16.20;99.90;;;;;;5078122;28;20176;-73
2021/10/03 06:46:47;;;;;;;9.10;7.33;;;16.20;99.90;;;;;;5074804;28;20163;-73
2021/10/03 06:49:12;;;;;;;7.30;6.50;;;16.20;99.90;;;;;;5075431;28;20155;-73
2021/10/03 06:51:42;;;;;;;9.53;7.10;;;16.20;99.90;;;;;;5074848;28;20156;-73
2021/10/03 06:54:08;;;;;;;7.93;7.10;;;16.20;99.90;;;;;;5074508;28;20622;-73
2021/10/03 06:56:34;;;;;;;10.30;8.10;;;16.20;99.90;;;;;;5074575;28;20411;-73
2021/10/03 06:58:59;;;;;;;7.17;6.47;;;16.20;99.90;;;;;;5074564;28;20966;-73
2021/10/03 07:01:25;;;;;;;8.23;7.43;;;16.20;99.90;;;;;;5074899;28;20695;-73
2021/10/03 07:03:50;;;;;;;7.03;6.33;;;16.20;99.90;;;;;;5075343;28;20175;-73
2021/10/03 07:06:16;;;;;;;7.50;6.80;;;16.20;99.90;;;;;;5074638;28;20163;-73
2021/10/03 07:08:41;;;;;;;8.83;8.00;;;16.10;99.90;;;;;;5082680;28;20189;-73
2021/10/03 07:11:07;;;;;;;11.87;8.20;;;16.10;99.90;;;;;;5094552;28;20162;-73
2021/10/03 07:13:33;;;;;;;8.10;6.50;;;16.10;99.90;;;;;;5094771;28;20167;-73
2021/10/03 07:15:58;;;;;;;7.03;6.33;;;16.10;99.90;;;;;;5094705;28;20173;-73
2021/10/03 07:18:24;;;;;;;9.10;7.87;;;16.10;99.90;;;;;;5078412;28;20300;-73
2021/10/03 07:20:49;;;;;;;11.93;7.90;;;16.10;99.90;;;;;;5074442;28;20171;-73
2021/10/03 07:23:15;;;;;;;7.80;6.23;;;16.00;99.90;;;;;;5074435;28;20229;-73
2021/10/03 07:25:40;;;;;;;7.20;6.50;;;16.10;99.90;;;;;;5074138;28;20612;-73
2021/10/03 07:28:06;;;;;;;8.80;7.00;;;16.10;99.90;;;;;;5074005;28;20167;-73
2021/10/03 07:30:32;;;;;;;8.20;7.00;;;16.10;99.90;;;;;;5074179;28;20522;-73
2021/10/03 07:32:57;;;;;;;10.30;7.30;;;16.20;99.90;;;;;;5074477;28;20163;-73
2021/10/03 07:35:23;;;;;;;7.80;6.93;;;16.20;99.90;;;;;;5074767;28;20184;-73
2021/10/03 07:37:48;;;;;;;9.00;6.80;;;16.20;99.90;;;;;;5074222;28;20166;-73
2021/10/03 07:40:15;;;;;;;6.83;6.23;;;16.20;99.90;;;;;;5094186;28;20628;-73
2021/10/03 07:42:42;;;;;;;9.77;7.63;;;16.10;99.90;;;;;;5094372;28;20178;-73
2021/10/03 07:45:09;;;;;;;8.27;6.10;;;16.10;99.90;;;;;;5094057;28;20377;-73
2021/10/03 07:47:34;;;;;;;7.17;6.50;;;16.10;99.90;;;;;;5094670;28;20761;-73
2021/10/03 07:50:00;;;;;;;14.60;7.43;;;16.20;99.90;;;;;;5093858;28;20451;-73
2021/10/03 07:52:25;;;;;;;7.90;6.40;;;16.20;99.90;;;;;;5076470;28;20175;-73
2021/10/03 07:54:52;;;;;;;10.10;6.13;;;16.10;99.90;;;;;;5073704;28;20170;-73
2021/10/03 07:57:18;;;;;;;7.10;6.40;;;16.10;99.90;;;;;;5073649;28;20160;-73
2021/10/03 07:59:44;;;;;;;8.53;6.90;;;16.10;99.90;;;;;;5073479;28;20421;-73
2021/10/03 08:02:09;;;;;;;8.17;7.10;;;16.00;99.90;;;;;;5074123;28;20465;-73
2021/10/03 08:04:35;;;;;;;8.20;7.40;;;16.00;99.90;;;;;;5073510;28;20151;-73
2021/10/03 08:07:00;;;;;;;12.10;8.03;;;16.00;99.90;;;;;;5073155;28;20165;-73
2021/10/03 08:09:26;;;;;;;9.03;7.77;;;16.00;99.90;;;;;;5090259;28;20174;-73
2021/10/03 08:11:54;;;;;;;9.33;7.40;;;16.00;99.90;;;;;;5093383;28;20158;-73
2021/10/03 08:14:19;;;;;;;9.43;7.83;;;16.00;99.90;;;;;;5094084;28;20170;-73
2021/10/03 08:16:45;;;;;;;9.97;8.13;;;15.90;99.90;;;;;;5093859;28;20909;-73
2021/10/03 08:19:10;;;;;;;9.50;8.60;;;15.90;99.90;;;;;;5093439;28;20155;-73
2021/10/03 08:21:36;;;;;;;9.23;7.33;;;15.90;99.90;;;;;;5093385;28;20241;-73
2021/10/03 08:24:01;;;;;;;8.47;7.57;;;15.90;99.90;;;;;;5093305;28;20147;-72
2021/10/03 08:26:27;;;;;;;9.43;7.00;;;15.90;99.90;;;;;;5075782;28;20194;-72
2021/10/03 08:28:53;;;;;;;15.23;8.40;;;15.80;99.90;;;;;;5073060;28;20239;-72
2021/10/03 08:31:18;;;;;;;12.77;8.03;;;15.90;99.90;;;;;;5073665;28;20228;-72
2021/10/03 08:33:44;;;;;;;9.30;7.53;;;15.90;99.90;;;;;;5072813;28;20167;-73
2021/10/03 08:36:09;;;;;;;9.40;7.50;;;15.90;99.90;;;;;;5072925;28;20170;-73
2021/10/03 08:38:35;;;;;;;8.67;7.77;;;15.90;99.90;;;;;;5082293;28;20212;-72
2021/10/03 08:41:01;;;;;;;9.13;7.67;;;15.90;99.90;;;;;;5093015;28;20189;-72
2021/10/03 08:43:29;;;;;;;8.90;8.00;;;15.90;99.90;;;;;;5075285;28;20175;-72
2021/10/03 08:45:57;;;;;;;11.30;8.80;;;15.90;99.90;;;;;;5073131;28;20398;-72
2021/10/03 08:48:23;;;;;;;12.00;8.47;;;15.80;99.90;;;;;;5072811;28;20385;-72
2021/10/03 08:50:49;;;;;;;11.13;9.00;;;15.90;99.90;;;;;;5072735;28;20448;-72
2021/10/03 08:53:16;;;;;;;10.33;9.23;;;15.80;99.90;;;;;;5072766;28;20401;-72
2021/10/03 08:55:42;;;;;;;10.37;9.37;;;15.90;99.90;;;;;;5072500;28;20463;-72
2021/10/03 08:58:07;;;;;;;10.07;8.37;;;15.90;99.90;;;;;;5072973;28;20394;-72
2021/10/03 09:00:34;;;;;;;16.30;9.57;;;15.90;99.90;;;;;;5073699;28;20210;-72
2021/10/03 09:05:45;;;;;;;10.90;8.30;;;15.90;99.90;;;;;;5110590;27;20536;-74
2021/10/03 09:18:59;;;;;;;15.03;10.30;;;15.90;99.90;;;;;;5070177;28;20997;-75
2021/10/03 09:21:38;;;;;;;9.33;7.40;;;15.90;99.90;;;;;;5070049;28;20393;-75
2021/10/03 09:24:21;;;;;;;9.30;8.43;;;15.90;99.90;;;;;;5070377;28;20378;-75
2021/10/03 09:29:36;;;;;;;10.67;8.17;;;15.90;99.90;;;;;;5070616;28;20516;-73
2021/10/03 09:32:20;;;;;;;10.03;8.40;;;15.90;99.90;;;;;;5070030;28;20468;-73
2021/10/03 09:34:49;;;;;;;8.87;7.27;;;16.00;99.90;;;;;;5069469;28;20430;-73
2021/10/03 09:40:04;;;;;;;10.80;7.90;;;16.00;99.90;;;;;;5090198;27;20537;-72
2021/10/03 09:42:29;;;;;;;8.23;6.93;;;16.00;99.90;;;;;;5090709;28;20900;-72
2021/10/03 09:47:45;;;;;;;9.93;7.60;;;16.00;99.90;;;;;;5070122;28;20864;-74
2021/10/03 09:50:13;;;;;;;7.80;7.00;;;16.10;99.90;;;;;;5063087;28;20445;-74
2021/10/03 09:52:40;;;;;;;9.43;8.53;;;16.10;99.90;;;;;;5050090;28;20254;-74
2021/10/03 09:55:09;;;;;;;10.83;8.90;;;16.10;99.90;;;;;;5050157;28;20387;-74
2021/10/03 09:57:37;;;;;;;12.50;8.30;;;16.10;99.90;;;;;;5050080;28;20883;-74
2021/10/03 10:00:03;;;;;;;9.10;7.80;;;16.20;99.90;;;;;;5050004;28;20391;-74
2021/10/03 10:02:29;;;;;;;9.20;7.80;;;16.20;99.90;;;;;;5049854;28;20382;-74
2021/10/03 10:04:55;;;;;;;9.33;8.43;;;16.20;99.90;;;;;;5049699;28;20383;-74
2021/10/03 10:07:21;;;;;;;9.07;7.70;;;16.20;99.90;;;;;;5050008;28;20200;-74
2021/10/03 10:09:48;;;;;;;8.80;7.57;;;16.20;99.90;;;;;;5050058;28;20383;-74
2021/10/03 10:12:16;;;;;;;11.43;9.20;;;16.20;99.90;;;;;;5049616;28;20414;-74
2021/10/03 10:14:45;;;;;;;11.90;10.27;;;16.30;99.90;;;;;;5049704;28;20399;-74
2021/10/03 10:23:01;;;;;;;8.13;7.10;;;16.30;99.90;;;;;;5070250;28;20641;-74
2021/10/03 10:25:52;;;;;;;9.20;7.57;;;16.40;99.90;;;;;;5052620;28;20403;-74
2021/10/03 10:28:22;;;;;;;8.60;7.17;;;16.40;99.90;;;;;;5049112;28;20445;-74
2021/10/03 10:39:16;;;;;;;8.23;7.43;;;16.40;99.90;;;;;;5069275;28;20532;-73
2021/10/03 10:41:45;;;;;;;11.70;7.77;;;16.40;99.90;;;;;;5048138;28;20446;-72
2021/10/03 10:47:17;;;;;;;8.70;6.90;;;16.50;99.90;;;;;;5090285;27;20845;-73
2021/10/03 10:49:47;;;;;;;8.50;6.70;;;16.50;99.90;;;;;;5090200;28;20409;-73
2021/10/03 11:00:30;;;;;;;8.77;6.57;;;16.50;99.90;;;;;;5063343;28;20525;-74
2021/10/03 11:08:22;;;;;;;7.77;6.97;;;16.50;99.90;;;;;;5069868;28;20512;-75
2021/10/03 11:19:05;;;;;;;7.47;6.17;;;16.60;99.90;;;;;;5070317;28;20524;-74
2021/10/03 11:21:36;;;;;;;8.93;7.17;;;16.80;99.90;;;;;;5070103;28;20409;-74
2021/10/03 11:24:05;;;;;;;8.10;7.03;;;16.80;99.90;;;;;;5069893;28;20382;-74
2021/10/03 11:26:53;;;;;;;8.07;5.83;;;16.80;99.90;;;;;;5069874;28;20406;-74
2021/10/03 11:29:21;;;;;;;9.43;6.20;;;16.80;99.90;;;;;;5068946;28;20464;-74
2021/10/03 11:31:51;;;;;;;8.40;6.47;;;16.80;99.90;;;;;;5065252;28;20446;-75
2021/10/03 11:34:36;;;;;;;8.00;6.70;;;16.80;99.90;;;;;;5050327;28;20395;-76
2021/10/03 11:37:23;;;;;;;10.00;7.03;;;16.80;99.90;;;;;;5049617;28;20442;-76
2021/10/03 11:39:52;;;;;;;7.93;6.50;;;16.80;99.90;;;;;;5048756;28;20498;-76
2021/10/03 11:47:50;;;;;;;11.00;7.17;;;16.80;99.90;;;;;;5070387;28;20515;-74
2021/10/03 11:50:23;;;;;;;8.80;7.00;;;16.80;99.90;;;;;;5054269;28;20916;-74
2021/10/03 11:52:50;;;;;;;8.20;7.40;;;16.80;99.90;;;;;;5049893;28;20764;-74
2021/10/03 11:55:19;;;;;;;6.10;5.60;;;16.80;99.90;;;;;;5049932;28;20391;-74
2021/10/03 11:57:47;;;;;;;6.70;6.10;;;16.90;99.90;;;;;;5050009;28;20383;-74
2021/10/03 12:03:03;;;;;;;10.20;6.40;;;16.80;99.90;;;;;;5070009;28;20534;-72
2021/10/03 12:05:29;;;;;;;6.23;5.63;;;16.90;99.90;;;;;;5069087;28;20469;-72
2021/10/03 12:08:04;;;;;;;6.90;6.27;;;16.90;99.90;;;;;;5050368;28;20387;-72
2021/10/03 12:13:30;;;;;;;6.83;6.10;;;16.90;99.90;;;;;;5069973;28;20513;-74
2021/10/03 12:18:46;;;;;;;7.13;6.47;;;16.80;99.90;;;;;;5070099;28;20512;-74
2021/10/03 12:26:42;;;;;;;7.97;6.90;;;16.80;99.90;;;;;;5070120;28;20933;-73
2021/10/03 12:34:32;;;;;;;7.40;6.10;;;16.80;99.90;;;;;;5070063;28;20501;-74
2021/10/03 12:37:00;;;;;;;12.23;7.27;;;16.80;99.90;;;;;;5070089;28;20883;-74
2021/10/03 12:39:28;;;;;;;6.67;5.97;;;16.90;99.90;;;;;;5069304;28;20465;-74
2021/10/03 12:41:56;;;;;;;7.60;6.90;;;16.90;99.90;;;;;;5050137;28;20410;-74
2021/10/03 12:47:08;;;;;;;7.50;6.70;;;16.90;99.90;;;;;;5069949;28;20572;-74
2021/10/03 12:49:35;;;;;;;8.77;6.87;;;17.00;99.90;;;;;;5070259;28;20474;-74
2021/10/03 12:52:01;;;;;;;6.87;5.90;;;17.00;99.90;;;;;;5070573;28;20385;-74
2021/10/03 12:54:27;;;;;;;6.27;5.60;;;17.10;99.90;;;;;;5070001;28;20375;-74
2021/10/03 12:56:56;;;;;;;7.43;6.57;;;17.10;99.90;;;;;;5065357;28;20781;-74
2021/10/03 12:59:22;;;;;;;8.90;6.33;;;17.10;99.90;;;;;;5049823;28;20191;-74
2021/10/03 13:01:48;;;;;;;6.30;5.60;;;17.20;99.90;;;;;;5069330;28;20408;-74
2021/10/03 13:04:14;;;;;;;6.13;5.47;;;17.20;99.90;;;;;;5069871;28;20409;-74
2021/10/03 13:06:39;;;;;;;9.03;5.53;;;17.30;99.90;;;;;;5070146;28;20191;-74
2021/10/03 13:09:05;;;;;;;5.20;4.70;;;17.40;99.90;;;;;;5069344;28;20190;-74
2021/10/03 13:11:31;;;;;;;6.10;4.37;;;17.50;99.90;;;;;;5069576;28;20171;-74
2021/10/03 13:13:57;;;;;;;4.90;4.40;;;17.50;99.90;;;;;;5064399;28;20183;-74
2021/10/03 13:16:22;;;;;;;7.27;4.80;;;17.60;99.90;;;;;;5049740;28;20532;-74
2021/10/03 13:18:48;;;;;;;8.33;4.90;;;17.70;99.90;;;;;;5049572;28;20404;-74
2021/10/03 13:21:14;;;;;;;4.63;3.93;;;17.70;99.90;;;;;;5050223;28;20172;-74
2021/10/03 13:23:39;;;;;;;4.40;4.00;;;17.80;99.90;;;;;;5054738;28;20701;-74
2021/10/03 13:26:05;;;;;;;4.00;3.70;;;17.80;99.90;;;;;;5069257;28;20241;-74
2021/10/03 13:28:31;;;;;;;4.97;3.60;;;17.90;99.90;;;;;;5069289;28;20160;-74
2021/10/03 13:30:58;;;;;;;4.30;3.90;;;18.00;99.90;;;;;;5061540;28;20231;-74
2021/10/03 13:33:24;;;;;;;4.87;3.80;;;18.00;99.90;;;;;;5069097;28;20416;-74
2021/10/03 13:35:50;;;;;;;5.30;4.00;;;18.00;99.90;;;;;;5069392;28;20395;-74
2021/10/03 13:38:16;;;;;;;3.93;3.47;;;18.00;99.90;;;;;;5068898;28;20170;-74
2021/10/03 13:40:42;;;;;;;10.30;4.83;;;18.10;99.90;;;;;;5068888;28;20164;-74
2021/10/03 13:43:09;;;;;;;6.07;4.77;;;18.10;99.90;;;;;;5068937;28;20838;-74
2021/10/03 13:45:35;;;;;;;5.20;4.10;;;18.10;99.90;;;;;;5068745;28;20456;-74
2021/10/03 13:48:02;;;;;;;4.20;3.63;;;18.10;99.90;;;;;;5068037;28;20817;-74
2021/10/03 13:50:27;;;;;;;4.50;3.80;;;18.10;99.90;;;;;;5069175;28;20390;-74
2021/10/03 13:52:53;;;;;;;4.43;3.60;;;18.10;99.90;;;;;;5068643;28;20406;-74
2021/10/03 13:55:19;;;;;;;4.10;3.23;;;18.10;99.90;;;;;;5068688;28;20205;-74
2021/10/03 13:57:44;;;;;;;4.37;3.47;;;18.10;99.90;;;;;;5058870;28;20161;-74
2021/10/03 14:00:11;;;;;;;6.23;3.43;;;18.10;99.90;;;;;;5049599;28;20559;-74
2021/10/03 14:02:39;;;;;;;5.70;3.57;;;18.10;99.90;;;;;;5035493;28;20153;-74
2021/10/03 14:05:07;;;;;;;4.30;3.23;;;18.10;99.90;;;;;;5041675;28;20449;-74
2021/10/03 14:07:32;;;;;;;4.27;3.60;;;18.10;99.90;;;;;;5055271;28;20395;-74
2021/10/03 14:09:57;;;;;;;3.80;3.10;;;18.10;99.90;;;;;;5055102;28;20401;-74
2021/10/03 14:12:24;;;;;;;5.87;4.30;;;18.00;99.90;;;;;;5055272;28;20183;-74